• Join FlightAware (Why Join?)
  • Login
  • US Flag 
10:46AM EDT


 

Airport Tracker/Info


-or-


 

Live Flight TrackerFlight Track Log ✈ SKW5252 ✈ 07-Jul-2014 ✈ KIAH - KCOS

Flight Track Log - Related Links

Times and Time Zones

All times are in EDT time to prevent confusion due to time zone crossing. See the SKW5252 flight status page for this flight to view local times or setup timezone preferences in your user account.

Time Position Orientation Groundspeed Altitude Reporting Facility
EDT Latitude Longitude Course Direction KTS MPH feet Rate Location/Type
07:00PM 29.9764 -95.2983 332° Northwest 182 209 700  Level Houston Center
07:01PM 30.0278 -95.2836 14° North 225 259 2,700 1,800 Climbing Houston Center
07:02PM 30.0917 -95.3156 337° Northwest 244 281 4,600 1,980 Climbing Houston Center
07:03PM 30.1558 -95.3647 326° Northwest 271 312 6,900 2,160 Climbing Houston Center
07:04PM 30.4986 -95.6325 334° Northwest  Level FlightAware Approximate
07:04PM 30.2236 -95.4153 327° Northwest 285 328 9,100  Level Houston Center
07:05PM 30.6037 -95.6835 332° Northwest  Level FlightAware Approximate
07:05PM 30.3053 -95.4783 326° Northwest 292 336 11,100  Level Houston Center
07:06PM 30.3789 -95.5353 326° Northwest 315 362 13,200 1,560 Climbing Houston Center
07:07PM 30.4539 -95.5875 329° Northwest 315 362 14,400 960 Climbing Houston Center
07:08PM 30.5347 -95.6508 326° Northwest 342 394 15,300 900 Climbing Houston Center
07:09PM 30.6278 -95.6992 336° Northwest 361 415 16,300 960 Climbing Houston Center
07:10PM 30.7303 -95.7550 335° Northwest 371 427 17,400 960 Climbing Houston Center
07:11PM 30.8281 -95.8067 336° Northwest 378 435 18,300 900 Climbing Houston Center
07:12PM 30.9258 -95.8603 335° Northwest 383 441 19,300 840 Climbing Houston Center
07:13PM 31.0244 -95.9144 335° Northwest 387 445 20,100 840 Climbing Houston Center
07:14PM 31.1442 -95.9764 336° Northwest 390 449 21,100 780 Climbing Houston Center
07:15PM 31.2494 -96.0167 342° North 392 451 21,800 540 Climbing Houston Center
07:16PM 31.3553 -96.0578 342° North 396 456 22,300 480 Climbing Houston Center
07:17PM 31.4347 -96.0867 343° North 404 465 22,700 480 Climbing Fort Worth Center
07:18PM 31.5425 -96.1297 341° North 409 471 23,200 480 Climbing Fort Worth Center
07:19PM 31.6744 -96.1800 342° North 413 475 23,800 480 Climbing Fort Worth Center
07:20PM 31.7836 -96.2231 341° North 415 478 24,300 480 Climbing Fort Worth Center
07:21PM 31.9003 -96.2683 342° North 414 476 24,800 480 Climbing Fort Worth Center
07:22PM 32.0103 -96.3114 342° North 414 476 25,300 480 Climbing Fort Worth Center
07:23PM 32.1200 -96.3550 341° North 414 476 25,800 480 Climbing Fort Worth Center
07:25PM 32.2206 -96.4153 333° Northwest 409 471 26,300 480 Climbing Fort Worth Center
07:26PM 32.3050 -96.5125 316° Northwest 420 483 26,800 480 Climbing Fort Worth Center
07:27PM 32.4072 -96.6261 317° Northwest 419 482 27,400 480 Climbing Fort Worth Center
07:28PM 32.4953 -96.7139 320° Northwest 416 479 27,900 480 Climbing Fort Worth Center
07:29PM 32.6083 -96.7231 356° North 402 463 28,400 480 Climbing Fort Worth Center
07:30PM 32.7194 -96.7344 355° North 403 464 28,900 480 Climbing Fort Worth Center
07:31PM 32.8303 -96.7472 354° North 403 464 29,400 480 Climbing Fort Worth Center
07:32PM 32.9636 -96.7589 356° North 403 464 30,000 240 Climbing Fort Worth Center
07:33PM 33.0753 -96.7694 355° North 405 466 30,000  Level Fort Worth Center
07:34PM 33.1917 -96.7847 354° North 422 486 30,000  Level Fort Worth Center
07:35PM 33.3044 -96.8325 341° North 437 503 30,000  Level Fort Worth Center
07:36PM 33.4203 -96.8819 340° North 444 511 30,000  Level Fort Worth Center
07:37PM 33.5600 -96.9378 342° North 445 512 30,000  Level Fort Worth Center
07:38PM 33.6622 -97.0150 328° Northwest 443 510 30,000  Level Fort Worth Center
07:39PM 33.7339 -97.1397 305° West 453 521 30,000  Level Fort Worth Center
07:40PM 33.7989 -97.2692 301° West 455 524 30,000 420 Level Fort Worth Center
07:41PM 33.8625 -97.3969 301° West 451 519 30,900 900 Climbing Fort Worth Center
07:42PM 33.9333 -97.5411 301° West 423 487 31,900 480 Climbing Fort Worth Center
07:43PM 33.9928 -97.6603 301° West 416 479 32,000  Climbing Fort Worth Center
07:44PM 34.0542 -97.7836 301° West 425 489 32,000  Level Fort Worth Center
07:45PM 34.1100 -97.9011 300° West 433 498 32,000  Level Fort Worth Center
07:46PM 34.1850 -98.0561 300° West 442 509 32,000  Level Fort Worth Center
07:47PM 34.2389 -98.1650 301° West 440 506 32,000  Level Fort Worth Center
07:48PM 34.3122 -98.3200 300° West 441 507 32,000  Level Fort Worth Center
07:49PM 34.3725 -98.4392 302° West 441 507 32,000  Level Fort Worth Center
07:50PM 34.4414 -98.5828 300° West 447 514 32,000  Level Fort Worth Center
07:51PM 34.5036 -98.7125 300° West 447 514 32,000  Level Fort Worth Center
07:52PM 34.5658 -98.8414 300° West 443 510 32,000  Level Fort Worth Center
07:53PM 34.6275 -98.9719 300° West 443 510 32,000  Level Fort Worth Center
07:55PM 34.6881 -99.1008 300° West 442 509 32,000  Level Fort Worth Center
07:56PM 34.7617 -99.2572 300° West 442 509 32,000  Level Fort Worth Center
07:57PM 34.8225 -99.3844 300° West 437 503 32,000  Level Fort Worth Center
07:58PM 34.8822 -99.5106 300° West 431 496 32,000  Level Fort Worth Center
07:59PM 34.9411 -99.6408 299° West 433 498 32,000  Level Fort Worth Center
08:00PM 35.0017 -99.7700 300° West 434 499 32,000  Level Fort Worth Center
08:01PM 35.0619 -99.9000 300° West 435 501 32,000  Level Fort Worth Center
08:02PM 35.1219 -100.0275 300° West 435 501 32,000  Level Fort Worth Center
08:03PM 35.1808 -100.1572 299° West 437 503 32,000  Level Albuquerque Center
08:04PM 35.2500 -100.3117 299° West 435 501 32,000  Level Albuquerque Center
08:05PM 35.3092 -100.4403 299° West 433 498 32,000  Level Albuquerque Center
08:06PM 35.3692 -100.5708 299° West 434 499 32,000  Level Albuquerque Center
08:07PM 35.4306 -100.7083 299° West 433 498 32,000  Level Albuquerque Center
08:08PM 35.4883 -100.8361 299° West 434 499 32,000  Level Albuquerque Center
08:09PM 35.5458 -100.9661 299° West 433 498 32,000  Level Albuquerque Center
08:10PM 35.6031 -101.0947 299° West 433 498 32,000  Level Albuquerque Center
08:11PM 35.6608 -101.2228 299° West 433 498 32,000  Level Albuquerque Center
08:12PM 35.7172 -101.3511 298° West 433 498 32,000  Level Albuquerque Center
08:13PM 35.7747 -101.4806 299° West 433 498 32,000  Level Albuquerque Center
08:14PM 35.8422 -101.6344 298° West 433 498 32,000  Level Albuquerque Center
08:15PM 35.8986 -101.7631 298° West 433 498 32,000  Level Albuquerque Center
08:16PM 35.9547 -101.8917 298° West 432 497 32,000  Level Albuquerque Center
08:17PM 36.0147 -102.0200 300° West 431 496 32,000  Level Albuquerque Center
08:18PM 36.0989 -102.1214 316° Northwest 429 494 32,000  Level Albuquerque Center
08:19PM 36.1814 -102.2242 315° West 425 489 32,000  Level Albuquerque Center
08:20PM 36.2644 -102.3286 315° West 425 489 32,000  Level Albuquerque Center
08:21PM 36.3642 -102.4519 315° West 425 489 32,000  Level Albuquerque Center
08:22PM 36.4453 -102.5553 314° West 424 488 32,000  Level Albuquerque Center
08:23PM 36.5264 -102.6586 314° West 421 484 32,000  Level Albuquerque Center
08:24PM 36.5878 -102.7817 302° West 425 489 32,000  Level Albuquerque Center
08:25PM 36.6472 -102.9042 301° West 425 489 32,000  Level Albuquerque Center
08:26PM 36.7083 -103.0278 302° West 424 488 32,000  Level Albuquerque Center
08:27PM 36.7683 -103.1511 301° West 421 484 32,000  Level Albuquerque Center
08:28PM 36.8406 -103.3011 301° West 421 484 32,000  Level Albuquerque Center
08:29PM 36.9000 -103.4244 301° West 420 483 32,000  Level Albuquerque Center
08:30PM 36.9606 -103.5492 301° West 419 482 32,000  Level Albuquerque Center
08:31PM 37.0203 -103.6708 302° West 416 479 32,000  Level Albuquerque Center
08:33PM 37.0975 -103.7764 313° West 415 478 32,000  Level Albuquerque Center
08:34PM 37.1822 -103.8753 317° Northwest 415 478 32,000  Level Albuquerque Center
08:35PM 37.2811 -103.9711 322° Northwest 415 478 32,000 -120 Level Albuquerque Center
08:36PM 37.4150 -104.1144 320° Northwest 414 476 31,800 -660 Descending Denver Center
08:37PM 37.5053 -104.2131 319° Northwest 416 479 30,400 -1,740 Descending Denver Center
08:38PM 37.6008 -104.2981 325° Northwest 423 487 28,300 -2,100 Descending Denver Center
08:39PM 37.7089 -104.3511 339° North 419 482 26,100 -2,220 Descending Denver Center
08:40PM 37.8156 -104.4022 339° North 413 475 23,800 -2,220 Descending Denver Center
08:41PM 37.9206 -104.4536 339° North 407 468 21,600 -2,160 Descending Denver Center
08:42PM 38.0236 -104.5028 339° North 400 460 19,400 -1,980 Descending Denver Center
08:43PM 38.1239 -104.5531 338° Northwest 393 452 17,600 -1,860 Descending Denver Center
08:44PM 38.2217 -104.6019 339° North 382 440 15,600 -1,740 Descending Denver Center
08:45PM 38.3336 -104.6419 344° North 358 412 14,100 -1,080 Descending Denver Center
08:46PM 38.4139 -104.6247 10° North 320 368 13,500 -780 Descending Denver Center
08:47PM 38.5125 -104.6042 North 323 372 12,500 -960 Descending Denver Center
08:48PM 38.6053 -104.5853 North 333 383 11,500 -780 Descending Denver Center
08:49PM 38.6956 -104.5836 North 330 380 11,000 -300 Descending Denver Center
08:50PM 38.7708 -104.5844 360° North 286 329 11,000 -360 Level Denver Center
08:51PM 38.8383 -104.5831 North 254 292 10,300 -1,260 Descending Denver Center
08:53PM 38.8842 -104.6419 315° West 200 230 8,500 -1,440 Descending Denver Center
08:54PM 38.8819 -104.6997 267° West 183 211 7,400 -960 Descending Denver Center
08:54PM 38.8517 -104.7167 204° Southwest 149 171 6,800 -840 Descending Denver Center
08:56PM 38.8000 -104.7000 201° Southwest  Level FlightAware Approximate
09:03PM 38.8058 -104.7008 201° Southwest  Level Estimated
09:04PM 38.8000 -104.7000 201° Southwest  Level FlightAware Approximate
09:05PM 38.8058 -104.7008 201° Southwest  Level Estimated